sensor_id;sensor_type;location;lat;lon;timestamp;P1;durP1;ratioP1;P2;durP2;ratioP2
78783;SDS011;68127;51.050;14.084;2023-04-16T00:01:54;9.65;;;6.45;;
78783;SDS011;68127;51.050;14.084;2023-04-16T00:04:19;9.02;;;6.07;;
78783;SDS011;68127;51.050;14.084;2023-04-16T00:06:45;9.15;;;6.65;;
78783;SDS011;68127;51.050;14.084;2023-04-16T00:09:10;9.07;;;6.40;;
78783;SDS011;68127;51.050;14.084;2023-04-16T00:11:35;9.85;;;6.90;;
78783;SDS011;68127;51.050;14.084;2023-04-16T00:14:00;8.95;;;6.35;;
78783;SDS011;68127;51.050;14.084;2023-04-16T00:16:26;9.77;;;6.57;;
78783;SDS011;68127;51.050;14.084;2023-04-16T00:18:51;9.52;;;6.18;;
78783;SDS011;68127;51.050;14.084;2023-04-16T00:21:18;8.43;;;6.05;;
78783;SDS011;68127;51.050;14.084;2023-04-16T00:23:43;9.60;;;6.65;;
78783;SDS011;68127;51.050;14.084;2023-04-16T00:26:09;9.85;;;6.20;;
78783;SDS011;68127;51.050;14.084;2023-04-16T00:28:35;8.10;;;5.70;;
78783;SDS011;68127;51.050;14.084;2023-04-16T00:31:00;9.88;;;6.72;;
78783;SDS011;68127;51.050;14.084;2023-04-16T00:33:25;8.40;;;6.10;;
78783;SDS011;68127;51.050;14.084;2023-04-16T00:35:51;8.85;;;6.40;;
78783;SDS011;68127;51.050;14.084;2023-04-16T00:38:16;8.68;;;6.13;;
78783;SDS011;68127;51.050;14.084;2023-04-16T00:40:41;10.45;;;6.80;;
78783;SDS011;68127;51.050;14.084;2023-04-16T00:43:06;12.18;;;7.03;;
78783;SDS011;68127;51.050;14.084;2023-04-16T00:45:32;9.30;;;6.55;;
78783;SDS011;68127;51.050;14.084;2023-04-16T00:47:57;10.65;;;6.53;;
78783;SDS011;68127;51.050;14.084;2023-04-16T00:50:23;10.95;;;6.72;;
78783;SDS011;68127;51.050;14.084;2023-04-16T00:52:48;8.93;;;6.05;;
78783;SDS011;68127;51.050;14.084;2023-04-16T00:55:14;9.00;;;6.25;;
78783;SDS011;68127;51.050;14.084;2023-04-16T00:57:42;9.60;;;6.80;;
78783;SDS011;68127;51.050;14.084;2023-04-16T01:00:07;10.70;;;6.43;;
78783;SDS011;68127;51.050;14.084;2023-04-16T01:02:33;9.05;;;6.05;;
78783;SDS011;68127;51.050;14.084;2023-04-16T01:04:59;9.32;;;6.15;;
78783;SDS011;68127;51.050;14.084;2023-04-16T01:07:25;8.98;;;6.43;;
78783;SDS011;68127;51.050;14.084;2023-04-16T01:09:50;9.52;;;6.15;;
78783;SDS011;68127;51.050;14.084;2023-04-16T01:12:15;8.68;;;6.47;;
78783;SDS011;68127;51.050;14.084;2023-04-16T01:14:41;8.45;;;5.68;;
78783;SDS011;68127;51.050;14.084;2023-04-16T01:17:06;8.68;;;6.22;;
78783;SDS011;68127;51.050;14.084;2023-04-16T01:19:31;9.57;;;6.35;;
78783;SDS011;68127;51.050;14.084;2023-04-16T01:22:00;9.77;;;6.05;;
78783;SDS011;68127;51.050;14.084;2023-04-16T01:24:25;9.27;;;6.05;;
78783;SDS011;68127;51.050;14.084;2023-04-16T01:26:50;8.48;;;6.03;;
78783;SDS011;68127;51.050;14.084;2023-04-16T01:29:15;7.95;;;5.45;;
78783;SDS011;68127;51.050;14.084;2023-04-16T01:31:41;10.13;;;6.30;;
78783;SDS011;68127;51.050;14.084;2023-04-16T01:34:06;8.48;;;5.68;;
78783;SDS011;68127;51.050;14.084;2023-04-16T01:36:31;9.68;;;6.40;;
78783;SDS011;68127;51.050;14.084;2023-04-16T01:38:56;12.45;;;6.70;;
78783;SDS011;68127;51.050;14.084;2023-04-16T01:41:22;9.05;;;6.07;;
78783;SDS011;68127;51.050;14.084;2023-04-16T01:43:47;10.48;;;6.40;;
78783;SDS011;68127;51.050;14.084;2023-04-16T01:46:45;9.88;;;6.57;;
78783;SDS011;68127;51.050;14.084;2023-04-16T01:49:04;11.65;;;6.03;;
78783;SDS011;68127;51.050;14.084;2023-04-16T01:51:31;10.02;;;5.90;;
78783;SDS011;68127;51.050;14.084;2023-04-16T01:53:56;9.30;;;5.90;;
78783;SDS011;68127;51.050;14.084;2023-04-16T01:56:22;9.32;;;5.97;;
78783;SDS011;68127;51.050;14.084;2023-04-16T01:58:47;9.07;;;6.53;;
78783;SDS011;68127;51.050;14.084;2023-04-16T02:01:12;9.15;;;6.35;;
78783;SDS011;68127;51.050;14.084;2023-04-16T02:03:38;8.90;;;6.60;;
78783;SDS011;68127;51.050;14.084;2023-04-16T02:06:04;13.65;;;6.68;;
78783;SDS011;68127;51.050;14.084;2023-04-16T02:08:29;10.13;;;6.82;;
78783;SDS011;68127;51.050;14.084;2023-04-16T02:10:54;9.93;;;6.53;;
78783;SDS011;68127;51.050;14.084;2023-04-16T02:13:20;9.45;;;6.20;;
78783;SDS011;68127;51.050;14.084;2023-04-16T02:15:46;9.88;;;5.85;;
78783;SDS011;68127;51.050;14.084;2023-04-16T02:18:12;10.25;;;6.72;;
78783;SDS011;68127;51.050;14.084;2023-04-16T02:20:40;9.38;;;5.90;;
78783;SDS011;68127;51.050;14.084;2023-04-16T02:23:06;9.98;;;6.40;;
78783;SDS011;68127;51.050;14.084;2023-04-16T02:25:32;10.32;;;7.00;;
78783;SDS011;68127;51.050;14.084;2023-04-16T02:28:02;10.88;;;7.22;;
78783;SDS011;68127;51.050;14.084;2023-04-16T02:30:27;12.32;;;7.15;;
78783;SDS011;68127;51.050;14.084;2023-04-16T02:32:52;9.13;;;6.13;;
78783;SDS011;68127;51.050;14.084;2023-04-16T02:35:18;8.85;;;5.53;;
78783;SDS011;68127;51.050;14.084;2023-04-16T02:37:43;9.98;;;6.68;;
78783;SDS011;68127;51.050;14.084;2023-04-16T02:40:08;10.48;;;6.53;;
78783;SDS011;68127;51.050;14.084;2023-04-16T02:42:34;11.13;;;6.82;;
78783;SDS011;68127;51.050;14.084;2023-04-16T02:44:59;16.15;;;7.47;;
78783;SDS011;68127;51.050;14.084;2023-04-16T02:47:25;10.88;;;7.43;;
78783;SDS011;68127;51.050;14.084;2023-04-16T02:49:50;12.38;;;8.02;;
78783;SDS011;68127;51.050;14.084;2023-04-16T02:52:15;12.65;;;7.93;;
78783;SDS011;68127;51.050;14.084;2023-04-16T02:54:41;12.73;;;8.88;;
78783;SDS011;68127;51.050;14.084;2023-04-16T02:57:06;12.68;;;8.65;;
78783;SDS011;68127;51.050;14.084;2023-04-16T02:59:31;14.77;;;9.27;;
78783;SDS011;68127;51.050;14.084;2023-04-16T03:01:56;16.02;;;9.90;;
78783;SDS011;68127;51.050;14.084;2023-04-16T03:04:22;15.38;;;10.00;;
78783;SDS011;68127;51.050;14.084;2023-04-16T03:06:47;15.95;;;10.77;;
78783;SDS011;68127;51.050;14.084;2023-04-16T03:09:12;13.90;;;9.30;;
78783;SDS011;68127;51.050;14.084;2023-04-16T03:11:38;12.63;;;8.23;;
78783;SDS011;68127;51.050;14.084;2023-04-16T03:14:04;14.93;;;9.57;;
78783;SDS011;68127;51.050;14.084;2023-04-16T03:16:29;13.68;;;9.05;;
78783;SDS011;68127;51.050;14.084;2023-04-16T03:18:54;14.63;;;9.98;;
78783;SDS011;68127;51.050;14.084;2023-04-16T03:21:19;13.98;;;9.23;;
78783;SDS011;68127;51.050;14.084;2023-04-16T03:23:45;13.98;;;9.13;;
78783;SDS011;68127;51.050;14.084;2023-04-16T03:26:10;16.15;;;9.90;;
78783;SDS011;68127;51.050;14.084;2023-04-16T03:28:35;12.25;;;8.00;;
78783;SDS011;68127;51.050;14.084;2023-04-16T03:31:00;13.73;;;8.48;;
78783;SDS011;68127;51.050;14.084;2023-04-16T03:33:26;12.55;;;8.50;;
78783;SDS011;68127;51.050;14.084;2023-04-16T03:35:54;14.27;;;9.13;;
78783;SDS011;68127;51.050;14.084;2023-04-16T03:38:21;15.52;;;9.02;;
78783;SDS011;68127;51.050;14.084;2023-04-16T03:40:47;12.77;;;8.13;;
78783;SDS011;68127;51.050;14.084;2023-04-16T03:43:12;15.68;;;9.38;;
78783;SDS011;68127;51.050;14.084;2023-04-16T03:45:42;14.00;;;8.40;;
78783;SDS011;68127;51.050;14.084;2023-04-16T03:48:08;14.80;;;8.57;;
78783;SDS011;68127;51.050;14.084;2023-04-16T03:50:33;15.13;;;8.90;;
78783;SDS011;68127;51.050;14.084;2023-04-16T03:52:59;14.38;;;9.20;;
78783;SDS011;68127;51.050;14.084;2023-04-16T03:55:24;13.25;;;9.20;;
78783;SDS011;68127;51.050;14.084;2023-04-16T03:57:49;16.50;;;9.20;;
78783;SDS011;68127;51.050;14.084;2023-04-16T04:00:15;15.30;;;9.50;;
78783;SDS011;68127;51.050;14.084;2023-04-16T04:02:40;15.30;;;9.13;;
78783;SDS011;68127;51.050;14.084;2023-04-16T04:05:05;17.23;;;10.15;;
78783;SDS011;68127;51.050;14.084;2023-04-16T04:07:31;15.27;;;9.68;;
78783;SDS011;68127;51.050;14.084;2023-04-16T04:09:56;14.30;;;9.30;;
78783;SDS011;68127;51.050;14.084;2023-04-16T04:12:22;15.15;;;9.15;;
78783;SDS011;68127;51.050;14.084;2023-04-16T04:14:47;14.45;;;9.15;;
78783;SDS011;68127;51.050;14.084;2023-04-16T04:17:12;16.65;;;10.40;;
78783;SDS011;68127;51.050;14.084;2023-04-16T04:19:37;16.48;;;9.98;;
78783;SDS011;68127;51.050;14.084;2023-04-16T04:22:03;16.90;;;11.65;;
78783;SDS011;68127;51.050;14.084;2023-04-16T04:24:28;17.73;;;11.75;;
78783;SDS011;68127;51.050;14.084;2023-04-16T04:26:53;19.17;;;11.63;;
78783;SDS011;68127;51.050;14.084;2023-04-16T04:29:18;15.52;;;10.40;;
78783;SDS011;68127;51.050;14.084;2023-04-16T04:31:44;15.35;;;8.73;;
78783;SDS011;68127;51.050;14.084;2023-04-16T04:34:09;17.58;;;9.27;;
78783;SDS011;68127;51.050;14.084;2023-04-16T04:36:34;13.10;;;8.38;;
78783;SDS011;68127;51.050;14.084;2023-04-16T04:39:00;14.70;;;8.05;;
78783;SDS011;68127;51.050;14.084;2023-04-16T04:41:25;15.32;;;9.27;;
78783;SDS011;68127;51.050;14.084;2023-04-16T04:43:51;20.10;;;9.38;;
78783;SDS011;68127;51.050;14.084;2023-04-16T04:46:16;18.88;;;9.93;;
78783;SDS011;68127;51.050;14.084;2023-04-16T04:48:41;20.45;;;9.98;;
78783;SDS011;68127;51.050;14.084;2023-04-16T04:51:06;26.60;;;9.60;;
78783;SDS011;68127;51.050;14.084;2023-04-16T04:53:32;17.73;;;11.05;;
78783;SDS011;68127;51.050;14.084;2023-04-16T04:55:57;27.80;;;10.05;;
78783;SDS011;68127;51.050;14.084;2023-04-16T04:58:22;27.02;;;10.30;;
78783;SDS011;68127;51.050;14.084;2023-04-16T05:00:47;22.33;;;8.93;;
78783;SDS011;68127;51.050;14.084;2023-04-16T05:03:17;25.70;;;9.65;;
78783;SDS011;68127;51.050;14.084;2023-04-16T05:05:43;25.17;;;9.27;;
78783;SDS011;68127;51.050;14.084;2023-04-16T05:08:08;18.92;;;9.13;;
78783;SDS011;68127;51.050;14.084;2023-04-16T05:10:34;19.20;;;9.32;;
78783;SDS011;68127;51.050;14.084;2023-04-16T05:12:59;23.70;;;11.25;;
78783;SDS011;68127;51.050;14.084;2023-04-16T05:15:24;32.10;;;11.48;;
78783;SDS011;68127;51.050;14.084;2023-04-16T05:17:50;35.10;;;10.43;;
78783;SDS011;68127;51.050;14.084;2023-04-16T05:20:15;21.90;;;9.85;;
78783;SDS011;68127;51.050;14.084;2023-04-16T05:22:40;16.63;;;9.13;;
78783;SDS011;68127;51.050;14.084;2023-04-16T05:25:06;26.48;;;11.95;;
78783;SDS011;68127;51.050;14.084;2023-04-16T05:27:31;39.42;;;10.02;;
78783;SDS011;68127;51.050;14.084;2023-04-16T05:29:56;40.63;;;8.98;;
78783;SDS011;68127;51.050;14.084;2023-04-16T05:32:24;35.33;;;11.15;;
78783;SDS011;68127;51.050;14.084;2023-04-16T05:34:49;59.63;;;10.80;;
78783;SDS011;68127;51.050;14.084;2023-04-16T05:37:15;40.90;;;10.10;;
78783;SDS011;68127;51.050;14.084;2023-04-16T05:39:40;37.60;;;10.73;;
78783;SDS011;68127;51.050;14.084;2023-04-16T05:42:05;55.88;;;10.93;;
78783;SDS011;68127;51.050;14.084;2023-04-16T05:44:30;55.72;;;10.75;;
78783;SDS011;68127;51.050;14.084;2023-04-16T05:46:56;44.90;;;10.07;;
78783;SDS011;68127;51.050;14.084;2023-04-16T05:49:21;41.03;;;10.60;;
78783;SDS011;68127;51.050;14.084;2023-04-16T05:51:49;48.67;;;10.68;;
78783;SDS011;68127;51.050;14.084;2023-04-16T05:54:14;43.80;;;10.45;;
78783;SDS011;68127;51.050;14.084;2023-04-16T05:56:40;28.42;;;10.27;;
78783;SDS011;68127;51.050;14.084;2023-04-16T05:59:05;28.92;;;9.90;;
78783;SDS011;68127;51.050;14.084;2023-04-16T06:01:31;21.80;;;9.32;;
78783;SDS011;68127;51.050;14.084;2023-04-16T06:03:56;26.85;;;10.82;;
78783;SDS011;68127;51.050;14.084;2023-04-16T06:06:21;18.98;;;10.02;;
78783;SDS011;68127;51.050;14.084;2023-04-16T06:08:47;23.08;;;9.80;;
78783;SDS011;68127;51.050;14.084;2023-04-16T06:11:12;23.92;;;9.20;;
78783;SDS011;68127;51.050;14.084;2023-04-16T06:13:37;44.88;;;9.90;;
78783;SDS011;68127;51.050;14.084;2023-04-16T06:16:03;21.83;;;8.50;;
78783;SDS011;68127;51.050;14.084;2023-04-16T06:18:28;13.82;;;8.43;;
78783;SDS011;68127;51.050;14.084;2023-04-16T06:20:53;16.58;;;9.30;;
78783;SDS011;68127;51.050;14.084;2023-04-16T06:23:19;16.02;;;9.27;;
78783;SDS011;68127;51.050;14.084;2023-04-16T06:25:44;13.40;;;9.00;;
78783;SDS011;68127;51.050;14.084;2023-04-16T06:28:09;15.18;;;9.32;;
78783;SDS011;68127;51.050;14.084;2023-04-16T06:30:34;16.52;;;9.40;;
78783;SDS011;68127;51.050;14.084;2023-04-16T06:33:00;16.15;;;10.02;;
78783;SDS011;68127;51.050;14.084;2023-04-16T06:35:25;14.00;;;9.02;;
78783;SDS011;68127;51.050;14.084;2023-04-16T06:37:51;16.40;;;9.20;;
78783;SDS011;68127;51.050;14.084;2023-04-16T06:40:16;13.90;;;9.02;;
78783;SDS011;68127;51.050;14.084;2023-04-16T06:42:41;13.98;;;8.98;;
78783;SDS011;68127;51.050;14.084;2023-04-16T06:45:07;14.27;;;9.65;;
78783;SDS011;68127;51.050;14.084;2023-04-16T06:47:32;13.23;;;8.93;;
78783;SDS011;68127;51.050;14.084;2023-04-16T06:49:57;18.77;;;11.55;;
78783;SDS011;68127;51.050;14.084;2023-04-16T06:52:23;16.65;;;10.65;;
78783;SDS011;68127;51.050;14.084;2023-04-16T06:54:48;16.30;;;9.77;;
78783;SDS011;68127;51.050;14.084;2023-04-16T06:57:13;15.82;;;10.38;;
78783;SDS011;68127;51.050;14.084;2023-04-16T06:59:40;15.02;;;10.07;;
78783;SDS011;68127;51.050;14.084;2023-04-16T07:02:05;18.70;;;12.38;;
78783;SDS011;68127;51.050;14.084;2023-04-16T07:04:32;18.02;;;10.85;;
78783;SDS011;68127;51.050;14.084;2023-04-16T07:06:58;16.42;;;10.60;;
78783;SDS011;68127;51.050;14.084;2023-04-16T07:09:23;18.35;;;10.77;;
78783;SDS011;68127;51.050;14.084;2023-04-16T07:11:49;15.40;;;10.23;;
78783;SDS011;68127;51.050;14.084;2023-04-16T07:14:14;15.10;;;9.13;;
78783;SDS011;68127;51.050;14.084;2023-04-16T07:16:39;16.80;;;10.63;;
78783;SDS011;68127;51.050;14.084;2023-04-16T07:19:05;14.10;;;9.65;;
78783;SDS011;68127;51.050;14.084;2023-04-16T07:21:30;19.73;;;12.73;;
78783;SDS011;68127;51.050;14.084;2023-04-16T07:23:55;18.08;;;12.60;;
78783;SDS011;68127;51.050;14.084;2023-04-16T07:26:21;20.05;;;13.07;;
78783;SDS011;68127;51.050;14.084;2023-04-16T07:28:46;15.10;;;10.27;;
78783;SDS011;68127;51.050;14.084;2023-04-16T07:31:11;16.98;;;11.55;;
78783;SDS011;68127;51.050;14.084;2023-04-16T07:33:36;17.10;;;11.25;;
78783;SDS011;68127;51.050;14.084;2023-04-16T07:36:02;24.60;;;15.30;;
78783;SDS011;68127;51.050;14.084;2023-04-16T07:38:27;16.92;;;10.55;;
78783;SDS011;68127;51.050;14.084;2023-04-16T07:40:52;18.23;;;12.45;;
78783;SDS011;68127;51.050;14.084;2023-04-16T07:43:19;16.90;;;11.15;;
78783;SDS011;68127;51.050;14.084;2023-04-16T07:45:44;23.02;;;14.63;;
78783;SDS011;68127;51.050;14.084;2023-04-16T07:48:09;29.25;;;18.52;;
78783;SDS011;68127;51.050;14.084;2023-04-16T07:50:35;18.17;;;11.98;;
78783;SDS011;68127;51.050;14.084;2023-04-16T07:53:00;20.02;;;13.63;;
78783;SDS011;68127;51.050;14.084;2023-04-16T07:55:25;16.70;;;11.20;;
78783;SDS011;68127;51.050;14.084;2023-04-16T07:57:51;15.80;;;10.70;;
78783;SDS011;68127;51.050;14.084;2023-04-16T08:00:16;17.55;;;11.38;;
78783;SDS011;68127;51.050;14.084;2023-04-16T08:02:42;20.23;;;13.07;;
78783;SDS011;68127;51.050;14.084;2023-04-16T08:05:07;14.60;;;10.82;;
78783;SDS011;68127;51.050;14.084;2023-04-16T08:07:33;17.40;;;10.15;;
78783;SDS011;68127;51.050;14.084;2023-04-16T08:09:58;19.88;;;13.00;;
78783;SDS011;68127;51.050;14.084;2023-04-16T08:12:23;14.80;;;10.05;;
78783;SDS011;68127;51.050;14.084;2023-04-16T08:14:48;14.88;;;10.07;;
78783;SDS011;68127;51.050;14.084;2023-04-16T08:17:14;16.65;;;11.30;;
78783;SDS011;68127;51.050;14.084;2023-04-16T08:19:40;14.00;;;9.65;;
78783;SDS011;68127;51.050;14.084;2023-04-16T08:22:06;14.43;;;9.65;;
78783;SDS011;68127;51.050;14.084;2023-04-16T08:24:31;14.70;;;9.65;;
78783;SDS011;68127;51.050;14.084;2023-04-16T08:26:57;14.18;;;9.85;;
78783;SDS011;68127;51.050;14.084;2023-04-16T08:29:22;11.75;;;8.55;;
78783;SDS011;68127;51.050;14.084;2023-04-16T08:31:50;13.80;;;9.13;;
78783;SDS011;68127;51.050;14.084;2023-04-16T08:34:16;13.88;;;9.30;;
78783;SDS011;68127;51.050;14.084;2023-04-16T08:36:41;12.40;;;8.90;;
78783;SDS011;68127;51.050;14.084;2023-04-16T08:39:06;14.35;;;9.73;;
78783;SDS011;68127;51.050;14.084;2023-04-16T08:41:31;14.43;;;10.05;;
78783;SDS011;68127;51.050;14.084;2023-04-16T08:43:59;14.93;;;10.20;;
78783;SDS011;68127;51.050;14.084;2023-04-16T08:46:25;14.13;;;10.15;;
78783;SDS011;68127;51.050;14.084;2023-04-16T08:48:52;14.82;;;9.98;;
78783;SDS011;68127;51.050;14.084;2023-04-16T08:51:18;16.40;;;10.73;;
78783;SDS011;68127;51.050;14.084;2023-04-16T08:53:52;17.08;;;11.02;;
78783;SDS011;68127;51.050;14.084;2023-04-16T08:56:23;20.60;;;13.25;;
78783;SDS011;68127;51.050;14.084;2023-04-16T08:58:50;17.05;;;11.88;;
78783;SDS011;68127;51.050;14.084;2023-04-16T09:01:16;17.90;;;12.20;;
78783;SDS011;68127;51.050;14.084;2023-04-16T09:03:43;18.45;;;11.73;;
78783;SDS011;68127;51.050;14.084;2023-04-16T09:06:10;18.45;;;12.65;;
78783;SDS011;68127;51.050;14.084;2023-04-16T09:08:36;23.23;;;15.35;;
78783;SDS011;68127;51.050;14.084;2023-04-16T09:11:02;17.30;;;12.55;;
78783;SDS011;68127;51.050;14.084;2023-04-16T09:13:27;17.63;;;11.88;;
78783;SDS011;68127;51.050;14.084;2023-04-16T09:15:53;20.65;;;13.93;;
78783;SDS011;68127;51.050;14.084;2023-04-16T09:18:18;16.85;;;10.80;;
78783;SDS011;68127;51.050;14.084;2023-04-16T09:20:45;17.02;;;11.30;;
78783;SDS011;68127;51.050;14.084;2023-04-16T09:23:11;17.75;;;12.13;;
78783;SDS011;68127;51.050;14.084;2023-04-16T09:25:36;15.77;;;10.95;;
78783;SDS011;68127;51.050;14.084;2023-04-16T09:28:02;13.02;;;9.02;;
78783;SDS011;68127;51.050;14.084;2023-04-16T09:30:28;15.15;;;10.25;;
78783;SDS011;68127;51.050;14.084;2023-04-16T09:33:10;13.50;;;9.20;;
78783;SDS011;68127;51.050;14.084;2023-04-16T09:36:10;11.98;;;8.70;;
78783;SDS011;68127;51.050;14.084;2023-04-16T09:38:48;13.07;;;8.65;;
78783;SDS011;68127;51.050;14.084;2023-04-16T09:41:15;14.35;;;9.32;;
78783;SDS011;68127;51.050;14.084;2023-04-16T09:43:40;15.20;;;8.40;;
78783;SDS011;68127;51.050;14.084;2023-04-16T09:46:06;12.18;;;8.52;;
78783;SDS011;68127;51.050;14.084;2023-04-16T09:48:35;10.75;;;7.68;;
78783;SDS011;68127;51.050;14.084;2023-04-16T09:51:00;12.20;;;8.43;;
78783;SDS011;68127;51.050;14.084;2023-04-16T09:53:26;13.57;;;8.00;;
78783;SDS011;68127;51.050;14.084;2023-04-16T09:55:56;11.25;;;7.32;;
78783;SDS011;68127;51.050;14.084;2023-04-16T09:58:22;12.95;;;8.30;;
78783;SDS011;68127;51.050;14.084;2023-04-16T10:00:48;12.98;;;8.20;;
78783;SDS011;68127;51.050;14.084;2023-04-16T10:03:13;12.15;;;6.88;;
78783;SDS011;68127;51.050;14.084;2023-04-16T10:05:40;11.10;;;6.68;;
78783;SDS011;68127;51.050;14.084;2023-04-16T10:08:23;8.90;;;6.40;;
78783;SDS011;68127;51.050;14.084;2023-04-16T10:10:48;9.07;;;5.95;;
78783;SDS011;68127;51.050;14.084;2023-04-16T10:13:13;9.70;;;6.13;;
78783;SDS011;68127;51.050;14.084;2023-04-16T10:15:41;10.52;;;5.68;;
78783;SDS011;68127;51.050;14.084;2023-04-16T10:18:07;8.15;;;5.68;;
78783;SDS011;68127;51.050;14.084;2023-04-16T10:20:32;8.20;;;5.03;;
78783;SDS011;68127;51.050;14.084;2023-04-16T10:22:57;8.20;;;5.00;;
78783;SDS011;68127;51.050;14.084;2023-04-16T10:25:23;7.25;;;4.97;;
78783;SDS011;68127;51.050;14.084;2023-04-16T10:27:48;6.68;;;4.75;;
78783;SDS011;68127;51.050;14.084;2023-04-16T10:30:15;7.35;;;5.00;;
78783;SDS011;68127;51.050;14.084;2023-04-16T10:32:40;7.68;;;4.68;;
78783;SDS011;68127;51.050;14.084;2023-04-16T10:35:06;8.05;;;4.85;;
78783;SDS011;68127;51.050;14.084;2023-04-16T10:37:31;8.30;;;5.25;;
78783;SDS011;68127;51.050;14.084;2023-04-16T10:39:57;7.63;;;5.20;;
78783;SDS011;68127;51.050;14.084;2023-04-16T10:42:24;7.45;;;4.60;;
78783;SDS011;68127;51.050;14.084;2023-04-16T10:44:49;8.07;;;4.85;;
78783;SDS011;68127;51.050;14.084;2023-04-16T10:47:15;7.00;;;4.38;;
78783;SDS011;68127;51.050;14.084;2023-04-16T10:49:40;8.45;;;4.97;;
78783;SDS011;68127;51.050;14.084;2023-04-16T10:52:10;7.17;;;4.57;;
78783;SDS011;68127;51.050;14.084;2023-04-16T10:54:37;6.55;;;4.40;;
78783;SDS011;68127;51.050;14.084;2023-04-16T10:57:05;6.97;;;4.72;;
78783;SDS011;68127;51.050;14.084;2023-04-16T10:59:33;7.55;;;4.72;;
78783;SDS011;68127;51.050;14.084;2023-04-16T11:02:00;6.72;;;4.47;;
78783;SDS011;68127;51.050;14.084;2023-04-16T11:04:37;6.90;;;4.55;;
78783;SDS011;68127;51.050;14.084;2023-04-16T11:12:13;6.43;;;3.63;;
78783;SDS011;68127;51.050;14.084;2023-04-16T11:14:39;5.45;;;3.80;;
78783;SDS011;68127;51.050;14.084;2023-04-16T11:17:05;9.45;;;4.45;;
78783;SDS011;68127;51.050;14.084;2023-04-16T11:19:31;6.88;;;4.35;;
78783;SDS011;68127;51.050;14.084;2023-04-16T11:21:56;6.60;;;4.00;;
78783;SDS011;68127;51.050;14.084;2023-04-16T11:24:22;6.22;;;4.30;;
78783;SDS011;68127;51.050;14.084;2023-04-16T11:26:49;7.05;;;3.80;;
78783;SDS011;68127;51.050;14.084;2023-04-16T11:29:15;5.47;;;3.47;;
78783;SDS011;68127;51.050;14.084;2023-04-16T11:31:40;5.20;;;3.53;;
78783;SDS011;68127;51.050;14.084;2023-04-16T11:34:06;6.45;;;4.43;;
78783;SDS011;68127;51.050;14.084;2023-04-16T11:36:42;7.10;;;3.83;;
78783;SDS011;68127;51.050;14.084;2023-04-16T11:39:08;5.20;;;3.55;;
78783;SDS011;68127;51.050;14.084;2023-04-16T11:41:33;6.60;;;4.78;;
78783;SDS011;68127;51.050;14.084;2023-04-16T11:43:58;6.43;;;4.20;;
78783;SDS011;68127;51.050;14.084;2023-04-16T11:46:24;6.18;;;3.38;;
78783;SDS011;68127;51.050;14.084;2023-04-16T11:49:01;12.07;;;8.05;;
78783;SDS011;68127;51.050;14.084;2023-04-16T11:51:27;18.20;;;12.70;;
78783;SDS011;68127;51.050;14.084;2023-04-16T11:53:53;7.10;;;4.60;;
78783;SDS011;68127;51.050;14.084;2023-04-16T11:56:29;7.82;;;4.50;;
78783;SDS011;68127;51.050;14.084;2023-04-16T12:01:35;5.72;;;3.35;;
78783;SDS011;68127;51.050;14.084;2023-04-16T12:04:01;6.75;;;4.30;;
78783;SDS011;68127;51.050;14.084;2023-04-16T12:06:27;8.05;;;4.22;;
78783;SDS011;68127;51.050;14.084;2023-04-16T12:08:53;5.50;;;3.80;;
78783;SDS011;68127;51.050;14.084;2023-04-16T12:11:18;7.72;;;3.47;;
78783;SDS011;68127;51.050;14.084;2023-04-16T12:16:32;5.07;;;3.13;;
78783;SDS011;68127;51.050;14.084;2023-04-16T12:18:58;4.80;;;2.90;;
78783;SDS011;68127;51.050;14.084;2023-04-16T12:21:25;6.40;;;2.92;;
78783;SDS011;68127;51.050;14.084;2023-04-16T12:24:03;4.82;;;2.55;;
78783;SDS011;68127;51.050;14.084;2023-04-16T12:26:39;3.90;;;2.30;;
78783;SDS011;68127;51.050;14.084;2023-04-16T12:29:22;3.65;;;2.20;;
78783;SDS011;68127;51.050;14.084;2023-04-16T12:31:49;4.13;;;2.30;;
78783;SDS011;68127;51.050;14.084;2023-04-16T12:34:15;3.70;;;2.17;;
78783;SDS011;68127;51.050;14.084;2023-04-16T12:36:41;4.85;;;3.03;;
78783;SDS011;68127;51.050;14.084;2023-04-16T12:39:07;5.22;;;3.15;;
78783;SDS011;68127;51.050;14.084;2023-04-16T12:41:35;6.00;;;3.67;;
78783;SDS011;68127;51.050;14.084;2023-04-16T12:44:04;6.40;;;3.92;;
78783;SDS011;68127;51.050;14.084;2023-04-16T12:46:32;4.45;;;2.90;;
78783;SDS011;68127;51.050;14.084;2023-04-16T12:48:58;4.22;;;2.55;;
78783;SDS011;68127;51.050;14.084;2023-04-16T12:51:23;4.53;;;2.63;;
78783;SDS011;68127;51.050;14.084;2023-04-16T12:53:48;3.25;;;2.03;;
78783;SDS011;68127;51.050;14.084;2023-04-16T12:56:14;4.80;;;2.97;;
78783;SDS011;68127;51.050;14.084;2023-04-16T12:58:40;6.55;;;4.30;;
78783;SDS011;68127;51.050;14.084;2023-04-16T13:01:05;6.13;;;4.03;;
78783;SDS011;68127;51.050;14.084;2023-04-16T13:03:31;7.13;;;3.42;;
78783;SDS011;68127;51.050;14.084;2023-04-16T13:05:56;4.63;;;3.00;;
78783;SDS011;68127;51.050;14.084;2023-04-16T13:08:21;4.55;;;2.75;;
78783;SDS011;68127;51.050;14.084;2023-04-16T13:10:46;4.70;;;3.10;;
78783;SDS011;68127;51.050;14.084;2023-04-16T13:13:12;5.18;;;3.40;;
78783;SDS011;68127;51.050;14.084;2023-04-16T13:15:37;6.07;;;3.60;;
78783;SDS011;68127;51.050;14.084;2023-04-16T13:18:02;5.88;;;3.85;;
78783;SDS011;68127;51.050;14.084;2023-04-16T13:20:28;4.47;;;2.92;;
78783;SDS011;68127;51.050;14.084;2023-04-16T13:22:53;4.70;;;2.80;;
78783;SDS011;68127;51.050;14.084;2023-04-16T13:25:18;5.65;;;3.20;;
78783;SDS011;68127;51.050;14.084;2023-04-16T13:27:43;4.65;;;3.05;;
78783;SDS011;68127;51.050;14.084;2023-04-16T13:30:09;5.57;;;3.38;;
78783;SDS011;68127;51.050;14.084;2023-04-16T13:32:35;6.32;;;3.88;;
78783;SDS011;68127;51.050;14.084;2023-04-16T13:35:00;5.93;;;4.10;;
78783;SDS011;68127;51.050;14.084;2023-04-16T13:37:25;6.32;;;3.25;;
78783;SDS011;68127;51.050;14.084;2023-04-16T13:39:50;5.28;;;3.42;;
78783;SDS011;68127;51.050;14.084;2023-04-16T13:42:16;5.40;;;3.08;;
78783;SDS011;68127;51.050;14.084;2023-04-16T13:44:41;4.90;;;3.20;;
78783;SDS011;68127;51.050;14.084;2023-04-16T13:47:06;5.88;;;4.38;;
78783;SDS011;68127;51.050;14.084;2023-04-16T13:49:32;5.70;;;4.25;;
78783;SDS011;68127;51.050;14.084;2023-04-16T13:51:59;7.05;;;4.63;;
78783;SDS011;68127;51.050;14.084;2023-04-16T13:54:24;5.50;;;4.30;;
78783;SDS011;68127;51.050;14.084;2023-04-16T13:56:50;6.75;;;4.45;;
78783;SDS011;68127;51.050;14.084;2023-04-16T13:59:15;7.68;;;4.50;;
78783;SDS011;68127;51.050;14.084;2023-04-16T14:01:40;7.32;;;4.63;;
78783;SDS011;68127;51.050;14.084;2023-04-16T14:04:06;6.97;;;4.63;;
78783;SDS011;68127;51.050;14.084;2023-04-16T14:06:31;6.85;;;4.93;;
78783;SDS011;68127;51.050;14.084;2023-04-16T14:08:57;7.03;;;4.72;;
78783;SDS011;68127;51.050;14.084;2023-04-16T14:11:22;7.35;;;5.35;;
78783;SDS011;68127;51.050;14.084;2023-04-16T14:13:48;6.78;;;4.75;;
78783;SDS011;68127;51.050;14.084;2023-04-16T14:16:13;8.05;;;5.18;;
78783;SDS011;68127;51.050;14.084;2023-04-16T14:18:38;6.70;;;4.70;;
78783;SDS011;68127;51.050;14.084;2023-04-16T14:21:07;6.57;;;4.85;;
78783;SDS011;68127;51.050;14.084;2023-04-16T14:23:34;6.30;;;4.57;;
78783;SDS011;68127;51.050;14.084;2023-04-16T14:26:00;8.35;;;5.28;;
78783;SDS011;68127;51.050;14.084;2023-04-16T14:28:25;7.10;;;4.20;;